createdAt,value
2023-03-27T00:00:01.503Z,96.79
2023-03-27T00:02:29.463Z,96.92
2023-03-27T00:04:57.261Z,96.52
2023-03-27T00:07:25.057Z,97.27
2023-03-27T00:09:54.640Z,96.28
2023-03-27T00:12:22.396Z,95.05
2023-03-27T00:14:50.179Z,95.76
2023-03-27T00:17:18.185Z,95.88
2023-03-27T00:19:46.469Z,96.19
2023-03-27T00:22:14.304Z,96.13
2023-03-27T00:24:42.123Z,97.07
2023-03-27T00:27:11.490Z,97.60
2023-03-27T00:29:39.781Z,98.10
2023-03-27T00:32:08.122Z,97.83
2023-03-27T00:34:35.896Z,98.20
2023-03-27T00:37:05.496Z,98.52
2023-03-27T00:39:33.302Z,98.32
2023-03-27T00:42:01.213Z,99.52
2023-03-27T00:44:34.424Z,98.05
2023-03-27T00:47:05.154Z,97.62
2023-03-27T00:49:37.829Z,97.93
2023-03-27T00:52:07.096Z,98.72
2023-03-27T00:54:40.211Z,98.56
2023-03-27T00:57:12.985Z,98.13
2023-03-27T00:59:45.037Z,98.84
2023-03-27T01:02:14.422Z,98.10
2023-03-27T01:04:43.915Z,98.42
2023-03-27T01:07:12.582Z,98.16
2023-03-27T01:09:41.102Z,98.27
2023-03-27T01:12:31.685Z,98.64
2023-03-27T01:15:15.417Z,99.12
2023-03-27T01:17:58.030Z,99.47
2023-03-27T01:20:57.007Z,98.68
2023-03-27T01:23:59.541Z,98.03
2023-03-27T01:26:59.656Z,97.21
2023-03-27T01:29:39.468Z,96.90
2023-03-27T01:32:33.894Z,97.34
2023-03-27T01:35:19.255Z,97.56
2023-03-27T01:38:12.908Z,97.93
2023-03-27T01:40:48.417Z,97.59
2023-03-27T01:43:20.540Z,97.86
2023-03-27T01:45:56.026Z,96.57
2023-03-27T01:48:31.682Z,96.56
2023-03-27T01:51:04.220Z,97.21
2023-03-27T01:53:37.090Z,97.17
2023-03-27T01:56:09.454Z,97.61
2023-03-27T01:58:46.355Z,97.37
2023-03-27T02:01:18.095Z,95.90
2023-03-27T02:03:49.585Z,95.76
2023-03-27T02:06:21.765Z,95.70
2023-03-27T02:08:55.712Z,96.06
2023-03-27T02:11:31.002Z,96.02
2023-03-27T02:14:02.534Z,95.62
2023-03-27T02:16:35.242Z,95.89
2023-03-27T02:19:08.244Z,95.21
2023-03-27T02:21:36.152Z,94.52
2023-03-27T02:24:06.721Z,96.02
2023-03-27T02:26:36.326Z,94.98
2023-03-27T02:29:25.341Z,94.91
2023-03-27T02:32:09.051Z,94.86
2023-03-27T02:34:57.012Z,95.75
2023-03-27T02:37:37.338Z,95.19
2023-03-27T02:40:40.702Z,95.04
2023-03-27T02:43:33.283Z,95.31
2023-03-27T02:46:06.939Z,96.37
2023-03-27T02:48:40.956Z,94.77
2023-03-27T02:51:13.106Z,94.74
2023-03-27T02:53:46.271Z,93.93
2023-03-27T02:56:17.655Z,93.16
2023-03-27T02:58:52.003Z,92.91
2023-03-27T03:01:37.964Z,92.88
2023-03-27T03:04:23.131Z,93.13
2023-03-27T03:07:14.399Z,91.96
2023-03-27T03:09:44.535Z,91.39
2023-03-27T03:12:12.321Z,92.73
2023-03-27T03:14:46.695Z,90.91
2023-03-27T03:17:17.088Z,90.55
2023-03-27T03:19:46.264Z,88.37
2023-03-27T03:22:14.110Z,86.47
2023-03-27T03:24:43.633Z,86.32
2023-03-27T03:27:14.843Z,85.27
2023-03-27T03:29:56.678Z,86.27
2023-03-27T03:32:28.210Z,82.80
2023-03-27T03:34:57.898Z,83.82
2023-03-27T03:37:38.579Z,82.61
2023-03-27T03:40:11.941Z,82.74
2023-03-27T03:42:46.392Z,81.64
2023-03-27T03:45:15.986Z,79.97
2023-03-27T03:47:45.511Z,78.45
2023-03-27T03:50:14.066Z,80.29
2023-03-27T03:52:42.299Z,80.39
2023-03-27T03:55:12.071Z,81.53
2023-03-27T03:57:40.776Z,81.90
2023-03-27T04:00:19.030Z,82.31
2023-03-27T04:02:54.302Z,82.64
2023-03-27T04:05:22.905Z,83.64
2023-03-27T04:07:55.414Z,81.19
2023-03-27T04:10:42.652Z,82.93
2023-03-27T04:13:31.375Z,80.55
2023-03-27T04:16:08.349Z,81.31
2023-03-27T04:18:41.492Z,80.50
2023-03-27T04:21:18.088Z,82.01
2023-03-27T04:23:49.155Z,81.33
2023-03-27T04:26:26.387Z,82.28
2023-03-27T04:29:12.817Z,82.27
2023-03-27T04:32:01.260Z,83.10
2023-03-27T04:34:41.629Z,81.92
2023-03-27T04:37:30.474Z,82.51
2023-03-27T04:40:14.377Z,83.65
2023-03-27T04:42:44.026Z,82.79
2023-03-27T04:45:15.071Z,83.26
2023-03-27T04:47:48.840Z,83.65
2023-03-27T04:50:17.233Z,82.48
2023-03-27T04:52:49.041Z,82.97
2023-03-27T04:55:19.601Z,82.10
2023-03-27T04:57:50.344Z,81.83
2023-03-27T05:00:19.454Z,81.95
2023-03-27T05:02:50.047Z,80.81
2023-03-27T05:05:25.030Z,82.63
2023-03-27T05:07:53.989Z,81.45
2023-03-27T05:10:25.888Z,80.82
2023-03-27T05:12:57.153Z,80.71
2023-03-27T05:15:26.489Z,79.89
2023-03-27T05:17:57.148Z,80.34
2023-03-27T05:20:27.102Z,80.97
2023-03-27T05:22:56.472Z,80.63
2023-03-27T05:25:28.826Z,80.73
2023-03-27T05:27:57.943Z,80.62
2023-03-27T05:30:30.620Z,80.98
2023-03-27T05:33:29.236Z,79.27
2023-03-27T05:35:58.676Z,80.13
2023-03-27T05:38:27.873Z,80.91
2023-03-27T05:41:16.873Z,81.24
2023-03-27T05:43:51.139Z,80.53
2023-03-27T05:46:21.740Z,80.10
2023-03-27T05:48:59.146Z,80.58
2023-03-27T05:51:27.598Z,80.48
2023-03-27T05:53:56.835Z,81.05
2023-03-27T05:56:34.563Z,79.85
2023-03-27T05:59:04.479Z,80.26
2023-03-27T06:01:36.540Z,79.87
2023-03-27T06:04:06.168Z,80.47
2023-03-27T06:07:10.588Z,80.98
2023-03-27T06:09:39.029Z,80.55
2023-03-27T06:12:26.173Z,80.40
2023-03-27T06:15:02.633Z,81.05
2023-03-27T06:17:36.782Z,81.01
2023-03-27T06:20:11.787Z,80.50
2023-03-27T06:22:45.200Z,80.36
2023-03-27T06:25:14.633Z,79.45
2023-03-27T06:27:43.479Z,79.61
2023-03-27T06:30:13.026Z,80.01
2023-03-27T06:32:46.254Z,80.35
2023-03-27T06:35:17.232Z,81.43
2023-03-27T06:38:08.164Z,80.09
2023-03-27T06:40:40.486Z,79.08
2023-03-27T06:43:10.238Z,79.25
2023-03-27T06:45:51.259Z,78.43
2023-03-27T06:48:37.920Z,78.97
2023-03-27T06:51:09.146Z,78.24
2023-03-27T06:53:38.335Z,77.96
2023-03-27T06:56:08.083Z,78.87
2023-03-27T06:58:56.519Z,79.33
2023-03-27T07:01:28.335Z,78.74
2023-03-27T07:04:15.466Z,77.59
2023-03-27T07:06:56.982Z,77.76
2023-03-27T07:09:25.970Z,78.57
2023-03-27T07:12:04.212Z,76.90
2023-03-27T07:14:33.378Z,75.84
2023-03-27T07:17:01.490Z,76.71
2023-03-27T07:19:41.866Z,76.64
2023-03-27T07:22:15.774Z,76.33
2023-03-27T07:24:43.848Z,75.59
2023-03-27T07:27:12.200Z,74.52
2023-03-27T07:29:41.536Z,75.12
2023-03-27T07:32:22.306Z,74.56
2023-03-27T07:34:57.976Z,75.17
2023-03-27T07:37:45.696Z,75.41
2023-03-27T07:40:39.380Z,74.83
2023-03-27T07:43:28.797Z,72.75
2023-03-27T07:45:57.682Z,72.82
2023-03-27T07:48:27.819Z,70.41
2023-03-27T07:51:07.175Z,71.43
2023-03-27T07:53:41.666Z,72.17
2023-03-27T07:56:24.575Z,71.59
2023-03-27T07:59:11.923Z,71.44
2023-03-27T08:01:42.263Z,72.01
2023-03-27T08:04:11.252Z,70.25
2023-03-27T08:06:42.601Z,68.23
2023-03-27T08:09:18.089Z,68.15
2023-03-27T08:11:47.538Z,68.93
2023-03-27T08:14:16.346Z,68.93
2023-03-27T08:16:45.445Z,70.22
2023-03-27T08:19:14.335Z,67.20
2023-03-27T08:21:47.009Z,68.52
2023-03-27T08:24:18.014Z,68.02
2023-03-27T08:27:07.536Z,66.81
2023-03-27T08:29:40.564Z,65.30
2023-03-27T08:32:10.675Z,66.01
2023-03-27T08:34:42.447Z,66.56
2023-03-27T08:37:11.063Z,65.55
2023-03-27T08:39:51.623Z,65.98
2023-03-27T08:42:24.638Z,64.95
2023-03-27T08:44:55.382Z,65.53
2023-03-27T08:47:41.539Z,64.37
2023-03-27T08:50:26.992Z,64.83
2023-03-27T08:53:16.331Z,64.35
2023-03-27T08:55:46.283Z,63.68
2023-03-27T08:58:38.118Z,62.67
2023-03-27T09:01:41.128Z,63.48
2023-03-27T09:04:25.072Z,63.75
2023-03-27T09:07:02.870Z,63.32
2023-03-27T09:09:46.852Z,62.69
2023-03-27T09:12:29.686Z,61.91
2023-03-27T09:15:04.438Z,62.29
2023-03-27T09:17:36.665Z,63.20
2023-03-27T09:20:19.111Z,62.18
2023-03-27T09:22:53.583Z,62.41
2023-03-27T09:25:50.698Z,63.82
2023-03-27T09:28:37.070Z,62.46
2023-03-27T09:31:21.007Z,62.40
2023-03-27T09:33:50.421Z,61.94
2023-03-27T09:36:18.370Z,60.33
2023-03-27T09:38:50.836Z,60.88
2023-03-27T09:41:26.516Z,60.79
2023-03-27T09:44:00.329Z,59.70
2023-03-27T09:46:30.167Z,59.12
2023-03-27T09:49:04.073Z,58.01
2023-03-27T09:51:41.162Z,60.80
2023-03-27T09:54:17.886Z,60.73
2023-03-27T09:56:48.620Z,54.85
2023-03-27T09:59:37.646Z,55.30
2023-03-27T10:02:19.358Z,57.34
2023-03-27T10:04:59.963Z,58.25
2023-03-27T10:07:33.480Z,56.67
2023-03-27T10:10:17.530Z,56.50
2023-03-27T10:13:10.700Z,56.54
2023-03-27T10:15:48.687Z,55.91
2023-03-27T10:18:28.144Z,55.37
2023-03-27T10:21:19.747Z,55.81
2023-03-27T10:23:49.763Z,55.13
2023-03-27T10:26:38.506Z,56.60
2023-03-27T10:29:22.926Z,54.20
2023-03-27T10:31:54.123Z,52.84
2023-03-27T10:34:57.366Z,51.42
2023-03-27T10:37:50.439Z,50.71
2023-03-27T10:40:37.650Z,52.01
2023-03-27T10:43:14.885Z,53.28
2023-03-27T10:45:48.914Z,53.73
2023-03-27T10:48:34.693Z,50.94
2023-03-27T10:51:06.716Z,50.48
2023-03-27T10:53:57.542Z,49.89
2023-03-27T10:56:46.279Z,50.86
2023-03-27T10:59:21.537Z,52.26
2023-03-27T11:02:01.011Z,52.07
2023-03-27T11:04:43.010Z,50.47
2023-03-27T11:07:20.757Z,51.13
2023-03-27T11:09:58.658Z,51.23
2023-03-27T11:12:37.687Z,51.09
2023-03-27T11:15:12.800Z,50.37
2023-03-27T11:17:45.171Z,52.10
2023-03-27T11:20:31.401Z,47.29
2023-03-27T11:23:20.440Z,46.95
2023-03-27T11:26:12.049Z,47.94
2023-03-27T11:28:47.174Z,48.07
2023-03-27T11:31:25.969Z,47.61
2023-03-27T11:34:00.105Z,48.77
2023-03-27T11:36:37.601Z,51.41
2023-03-27T11:39:27.167Z,51.32
2023-03-27T11:41:59.510Z,52.55
2023-03-27T11:44:30.291Z,50.43
2023-03-27T11:47:47.413Z,50.42
2023-03-27T11:50:26.225Z,50.93
2023-03-27T11:53:14.094Z,50.98
2023-03-27T11:56:17.371Z,49.51
2023-03-27T11:59:05.969Z,49.33
2023-03-27T12:01:40.552Z,47.35
2023-03-27T12:04:20.945Z,47.10
2023-03-27T12:07:33.840Z,47.74
2023-03-27T12:10:29.113Z,49.97
2023-03-27T12:13:40.710Z,48.86
2023-03-27T12:16:28.123Z,49.27
2023-03-27T12:19:27.607Z,49.75
2023-03-27T12:22:24.389Z,48.75
2023-03-27T12:25:16.896Z,47.75
2023-03-27T12:28:22.941Z,50.11
2023-03-27T12:31:29.032Z,49.64
2023-03-27T12:34:02.982Z,51.69
2023-03-27T12:36:37.738Z,51.04
2023-03-27T12:39:16.210Z,51.78
2023-03-27T12:41:46.175Z,51.32
2023-03-27T12:44:31.331Z,50.44
2023-03-27T12:47:16.970Z,52.35
2023-03-27T12:49:48.388Z,54.27
2023-03-27T12:52:27.478Z,54.55
2023-03-27T12:55:32.092Z,54.70
2023-03-27T12:58:02.797Z,53.91
2023-03-27T13:01:00.304Z,53.46
2023-03-27T13:04:12.617Z,53.24
2023-03-27T13:06:50.867Z,52.48
2023-03-27T13:09:43.160Z,53.04
2023-03-27T13:12:37.892Z,52.60
2023-03-27T13:15:23.795Z,52.31
2023-03-27T13:18:25.616Z,53.60
2023-03-27T13:21:01.478Z,54.12
2023-03-27T13:23:47.069Z,55.31
2023-03-27T13:26:34.828Z,55.30
2023-03-27T13:29:04.109Z,53.43
2023-03-27T13:32:08.714Z,53.18
2023-03-27T13:35:04.964Z,51.75
2023-03-27T13:37:59.074Z,53.17
2023-03-27T13:40:36.684Z,52.13
2023-03-27T13:43:18.499Z,52.89
2023-03-27T13:45:52.694Z,50.76
2023-03-27T13:49:04.669Z,51.91
2023-03-27T13:51:59.078Z,56.36
2023-03-27T13:54:48.325Z,62.64
2023-03-27T13:57:29.516Z,65.52
2023-03-27T14:00:33.905Z,67.64
2023-03-27T14:03:41.409Z,71.99
2023-03-27T14:06:55.152Z,74.74
2023-03-27T14:09:35.622Z,76.23
2023-03-27T14:12:15.993Z,75.20
2023-03-27T14:15:24.253Z,78.22
2023-03-27T14:18:32.019Z,80.07
2023-03-27T14:21:02.245Z,80.35
2023-03-27T14:23:50.398Z,81.68
2023-03-27T14:26:38.129Z,81.01
2023-03-27T14:29:06.973Z,79.05
2023-03-27T14:31:44.623Z,78.83
2023-03-27T14:34:47.133Z,77.42
2023-03-27T14:37:47.310Z,76.33
2023-03-27T14:40:28.501Z,77.41
2023-03-27T14:43:02.164Z,77.71
2023-03-27T14:45:34.207Z,78.94
2023-03-27T14:48:08.281Z,78.34
2023-03-27T14:50:48.749Z,75.55
2023-03-27T14:53:26.070Z,76.84
2023-03-27T14:56:11.496Z,75.19
2023-03-27T14:58:59.144Z,74.67
2023-03-27T15:01:35.043Z,73.80
2023-03-27T15:04:04.436Z,74.49
2023-03-27T15:06:36.441Z,73.61
2023-03-27T15:09:13.318Z,72.88
2023-03-27T15:12:00.133Z,72.83
2023-03-27T15:14:33.535Z,72.90
2023-03-27T15:17:07.584Z,72.96
2023-03-27T15:19:45.432Z,70.24
2023-03-27T15:22:22.929Z,71.77
2023-03-27T15:24:57.052Z,71.75
2023-03-27T15:27:28.998Z,69.34
2023-03-27T15:30:01.417Z,66.46
2023-03-27T15:32:33.892Z,66.83
2023-03-27T15:35:05.269Z,64.03
2023-03-27T15:37:35.033Z,64.13
2023-03-27T15:40:32.923Z,63.31
2023-03-27T15:43:07.801Z,65.30
2023-03-27T15:45:40.333Z,68.09
2023-03-27T15:48:19.702Z,70.16
2023-03-27T15:50:55.960Z,73.51
2023-03-27T15:53:39.068Z,77.32
2023-03-27T15:56:15.910Z,81.20
2023-03-27T15:58:51.213Z,82.57
2023-03-27T16:01:23.550Z,83.66
2023-03-27T16:03:52.285Z,84.14
2023-03-27T16:06:28.084Z,84.97
2023-03-27T16:08:56.578Z,85.11
2023-03-27T16:11:43.683Z,85.26
2023-03-27T16:14:27.352Z,85.95
2023-03-27T16:17:11.816Z,86.12
2023-03-27T16:19:44.110Z,87.42
2023-03-27T16:22:13.156Z,88.69
2023-03-27T16:24:41.454Z,88.07
2023-03-27T16:27:11.218Z,88.95
2023-03-27T16:29:38.968Z,88.04
2023-03-27T16:32:13.228Z,88.53
2023-03-27T16:34:41.225Z,89.93
2023-03-27T16:37:09.306Z,89.01
2023-03-27T16:39:37.767Z,87.32
2023-03-27T16:42:05.954Z,87.90
2023-03-27T16:44:33.857Z,89.11
2023-03-27T16:47:01.827Z,91.16
2023-03-27T16:49:31.066Z,89.36
2023-03-27T16:51:58.907Z,90.98
2023-03-27T16:54:26.749Z,89.96
2023-03-27T16:56:54.822Z,89.40
2023-03-27T16:59:23.008Z,89.28
2023-03-27T17:01:51.262Z,89.82
2023-03-27T17:04:19.162Z,88.50
2023-03-27T17:06:48.349Z,87.80
2023-03-27T17:09:16.667Z,87.56
2023-03-27T17:11:44.608Z,89.05
2023-03-27T17:14:12.572Z,89.01
2023-03-27T17:16:40.360Z,90.52
2023-03-27T17:19:08.414Z,90.09
2023-03-27T17:21:36.230Z,89.52
2023-03-27T17:24:06.352Z,87.93
2023-03-27T17:26:35.837Z,89.55
2023-03-27T17:29:06.011Z,90.03
2023-03-27T17:31:34.624Z,90.02
2023-03-27T17:34:02.903Z,91.27
2023-03-27T17:36:40.155Z,90.23
2023-03-27T17:39:13.279Z,91.05
2023-03-27T17:41:41.589Z,90.83
2023-03-27T17:44:11.648Z,90.52
2023-03-27T17:46:39.859Z,90.23
2023-03-27T17:49:07.750Z,91.27
2023-03-27T17:51:37.051Z,91.07
2023-03-27T17:54:05.498Z,91.49
2023-03-27T17:56:34.770Z,91.03
2023-03-27T17:59:02.780Z,91.46
2023-03-27T18:01:30.682Z,91.45
2023-03-27T18:04:00.616Z,91.27
2023-03-27T18:06:28.643Z,91.73
2023-03-27T18:08:56.536Z,90.66
2023-03-27T18:11:24.562Z,91.18
2023-03-27T18:13:53.754Z,91.04
2023-03-27T18:16:23.144Z,91.69
2023-03-27T18:18:54.180Z,90.68
2023-03-27T18:21:22.267Z,90.98
2023-03-27T18:23:51.563Z,91.75
2023-03-27T18:26:21.419Z,91.97
2023-03-27T18:28:49.186Z,91.45
2023-03-27T18:31:18.839Z,89.38
2023-03-27T18:33:46.767Z,85.72
2023-03-27T18:36:15.576Z,86.44
2023-03-27T18:38:44.135Z,85.19
2023-03-27T18:41:12.293Z,85.20
2023-03-27T18:43:40.402Z,86.13
2023-03-27T18:46:08.915Z,87.27
2023-03-27T18:48:38.188Z,86.61
2023-03-27T18:51:07.484Z,87.24
2023-03-27T18:53:36.362Z,86.61
2023-03-27T18:56:05.304Z,87.14
2023-03-27T18:58:35.407Z,86.96
2023-03-27T19:01:08.228Z,88.66
2023-03-27T19:03:39.291Z,88.18
2023-03-27T19:06:10.194Z,86.95
2023-03-27T19:08:39.060Z,89.23
2023-03-27T19:11:07.260Z,89.59
2023-03-27T19:13:53.682Z,89.47
2023-03-27T19:16:34.054Z,88.51
2023-03-27T19:19:15.951Z,89.66
2023-03-27T19:21:53.538Z,89.05
2023-03-27T19:24:30.828Z,89.88
2023-03-27T19:26:59.588Z,90.41
2023-03-27T19:29:27.608Z,90.38
2023-03-27T19:31:55.690Z,90.87
2023-03-27T19:34:40.130Z,90.36
2023-03-27T19:37:10.136Z,89.25
2023-03-27T19:39:38.139Z,90.07
2023-03-27T19:42:06.114Z,91.03
2023-03-27T19:44:37.984Z,90.60
2023-03-27T19:47:07.513Z,89.17
2023-03-27T19:49:37.152Z,90.63
2023-03-27T19:52:19.356Z,90.80
2023-03-27T19:54:47.674Z,90.78
2023-03-27T19:57:15.871Z,91.30
2023-03-27T19:59:43.789Z,90.66
2023-03-27T20:02:12.587Z,88.76
2023-03-27T20:04:41.938Z,88.34
2023-03-27T20:07:10.025Z,88.85
2023-03-27T20:09:38.195Z,89.02
2023-03-27T20:12:07.432Z,88.80
2023-03-27T20:14:35.404Z,87.75
2023-03-27T20:17:06.293Z,86.64
2023-03-27T20:19:36.730Z,87.62
2023-03-27T20:22:08.049Z,87.61
2023-03-27T20:24:36.957Z,88.31
2023-03-27T20:27:07.059Z,86.15
2023-03-27T20:29:35.000Z,86.68
2023-03-27T20:32:03.530Z,86.29
2023-03-27T20:34:32.193Z,87.22
2023-03-27T20:37:00.901Z,86.97
2023-03-27T20:39:38.714Z,86.46
2023-03-27T20:42:07.765Z,87.00
2023-03-27T20:44:36.018Z,86.68
2023-03-27T20:47:10.906Z,88.85
2023-03-27T20:49:41.678Z,88.33
2023-03-27T20:52:11.583Z,89.04
2023-03-27T20:54:41.925Z,90.76
2023-03-27T20:57:12.471Z,89.56
2023-03-27T20:59:40.844Z,90.39
2023-03-27T21:02:14.610Z,90.12
2023-03-27T21:04:42.517Z,90.85
2023-03-27T21:07:10.590Z,91.10
2023-03-27T21:09:38.894Z,91.91
2023-03-27T21:12:09.040Z,91.71
2023-03-27T21:14:38.130Z,91.94
2023-03-27T21:17:06.013Z,91.78
2023-03-27T21:19:33.870Z,90.82
2023-03-27T21:22:01.817Z,92.70
2023-03-27T21:24:29.683Z,91.57
2023-03-27T21:26:58.522Z,91.75
2023-03-27T21:29:27.829Z,91.60
2023-03-27T21:31:56.124Z,92.15
2023-03-27T21:34:24.193Z,92.21
2023-03-27T21:36:52.081Z,91.65
2023-03-27T21:39:20.664Z,91.26
2023-03-27T21:41:49.246Z,91.53
2023-03-27T21:44:17.177Z,91.97
2023-03-27T21:46:46.391Z,91.94
2023-03-27T21:49:14.210Z,92.48
2023-03-27T21:51:42.105Z,92.78
2023-03-27T21:54:09.911Z,92.04
2023-03-27T21:56:37.755Z,92.10
2023-03-27T21:59:05.605Z,92.75
2023-03-27T22:01:33.513Z,92.81
2023-03-27T22:04:02.752Z,92.05
2023-03-27T22:06:30.797Z,92.05
2023-03-27T22:08:59.322Z,92.27
2023-03-27T22:11:27.712Z,92.82
2023-03-27T22:13:55.876Z,91.97
2023-03-27T22:16:23.860Z,92.15
2023-03-27T22:18:51.874Z,92.06
2023-03-27T22:21:23.592Z,92.23
2023-03-27T22:23:51.976Z,91.95
2023-03-27T22:26:20.886Z,91.79
2023-03-27T22:28:48.787Z,92.78
2023-03-27T22:31:17.145Z,92.16
2023-03-27T22:33:45.615Z,92.38
2023-03-27T22:36:13.934Z,92.20
2023-03-27T22:38:43.575Z,92.53
2023-03-27T22:41:13.929Z,92.29
2023-03-27T22:43:42.529Z,92.29
2023-03-27T22:46:12.629Z,93.62
2023-03-27T22:48:40.808Z,92.86
2023-03-27T22:51:10.714Z,93.07
2023-03-27T22:53:39.106Z,92.61
2023-03-27T22:56:09.792Z,93.12
2023-03-27T22:58:37.709Z,93.05
2023-03-27T23:01:07.100Z,93.37
2023-03-27T23:03:35.319Z,92.43
2023-03-27T23:06:03.522Z,93.44
2023-03-27T23:08:31.830Z,92.80
2023-03-27T23:11:01.934Z,92.95
2023-03-27T23:13:33.075Z,93.83
2023-03-27T23:16:01.513Z,92.94
2023-03-27T23:18:29.655Z,93.71
2023-03-27T23:20:59.544Z,93.18
2023-03-27T23:23:28.956Z,93.30
2023-03-27T23:25:57.915Z,92.80
2023-03-27T23:28:26.919Z,92.86
2023-03-27T23:30:58.875Z,92.41
2023-03-27T23:33:27.037Z,92.61
2023-03-27T23:36:01.105Z,92.13
2023-03-27T23:38:29.412Z,91.42
2023-03-27T23:40:59.072Z,91.90
2023-03-27T23:43:29.124Z,92.00
2023-03-27T23:46:00.272Z,91.91
2023-03-27T23:48:29.201Z,92.87
2023-03-27T23:50:57.958Z,92.10
2023-03-27T23:53:27.493Z,91.78
2023-03-27T23:55:56.987Z,92.78
2023-03-27T23:58:28.713Z,92.04
